Carlisle, Texas
Current Conditions -  °F | °C
As of 2:15 PM on Friday 21 Nov 2014 (Local Time) from KDKR Reporting Station
Overcast Overcast  
Wind Chill: 66°   Ceiling: 1000
Heat Index: 66°   Visibility: 10mi
Dew Point: 66°   Wind: 9mph
Humidity: 100%   Direction: 160°SSE
Pressure: 30.13"   Gusts: NA
Location:  30.9905°N, 95.3368°W
Report Text: KDKR 212015Z AUTO 16008KT 10SM OVC010 19/19 A3013 RMK AO2
Loading
Personal Weather Stations






























Interactive Weather Map New forecast layout! Learn more

10-Day Weather Forecast

Advertisements
Track Severe Weather on mobile